Time;durP1;ratioP1;P1;durP2;ratioP2;P2;SDS_P1;SDS_P2;PMS_P1;PMS_P2;Temp;Humidity;BMP_temperature;BMP_pressure;BME280_temperature;BME280_humidity;BME280_pressure;Samples;Min_cycle;Max_cycle;Signal;HPM_P1;HPM_P2
2023/06/09 00:00:13;;;;;;;;;;;;;;;17.83;59.87;101478.69;5018701;28;20007;-55
2023/06/09 00:02:39;;;;;;;;;;;;;;;17.79;60.15;101475.22;5013600;28;20427;-59
2023/06/09 00:05:04;;;;;;;;;;;;;;;17.74;59.75;101483.84;5017700;28;20308;-56
2023/06/09 00:07:33;;;;;;;;;;;;;;;17.70;60.15;101478.56;5020575;28;20339;-55
2023/06/09 00:09:59;;;;;;;;;;;;;;;17.68;59.99;101474.22;5026418;28;19921;-56
2023/06/09 00:12:24;;;;;;;;;;;;;;;17.64;60.16;101473.31;5027694;28;20367;-56
2023/06/09 00:14:49;;;;;;;;;;;;;;;17.57;60.32;101474.13;5014370;28;20296;-57
2023/06/09 00:17:15;;;;;;;;;;;;;;;17.53;60.42;101469.75;5021775;28;19921;-55
2023/06/09 00:19:43;;;;;;;;;;;;;;;17.49;60.19;101481.00;5025038;28;20318;-56
2023/06/09 00:22:13;;;;;;;;;;;;;;;17.49;60.51;101481.00;5017625;28;20036;-56
2023/06/09 00:24:39;;;;;;;;;;;;;;;17.40;60.75;101476.56;5024490;28;19925;-56
2023/06/09 00:27:04;;;;;;;;;;;;;;;17.41;60.38;101467.03;5020609;28;20430;-57
2023/06/09 00:29:29;;;;;;;;;;;;;;;17.35;60.79;101472.16;5021740;28;19928;-56
2023/06/09 00:31:55;;;;;;;;;;;;;;;17.32;60.76;101477.34;5018690;28;20011;-56
2023/06/09 00:34:20;;;;;;;;;;;;;;;17.25;60.56;101467.75;5020823;28;19924;-56
2023/06/09 00:36:45;;;;;;;;;;;;;;;17.21;61.20;101477.22;5017804;28;19940;-58
2023/06/09 00:39:11;;;;;;;;;;;;;;;17.18;60.75;101473.75;5020922;28;20353;-56
2023/06/09 00:41:37;;;;;;;;;;;;;;;17.13;60.82;101471.09;5016974;28;20416;-44
2023/06/09 00:44:03;;;;;;;;;;;;;;;17.09;61.08;101469.31;5023684;28;19913;-46
2023/06/09 00:46:28;;;;;;;;;;;;;;;17.04;60.86;101470.97;5021169;28;19917;-44
2023/06/09 00:48:53;;;;;;;;;;;;;;;17.03;61.03;101464.03;5024408;28;19918;-44
2023/06/09 00:51:19;;;;;;;;;;;;;;;16.98;61.29;101463.97;5018452;28;19918;-43
2023/06/09 00:53:44;;;;;;;;;;;;;;;16.94;61.67;101463.94;5025478;28;19932;-45
2023/06/09 00:56:09;;;;;;;;;;;;;;;16.88;61.37;101467.34;5016804;28;19925;-43
2023/06/09 00:58:35;;;;;;;;;;;;;;;16.87;61.19;101468.22;5020004;28;19925;-44
2023/06/09 01:01:00;;;;;;;;;;;;;;;16.79;61.93;101464.63;5014193;28;20570;-44
2023/06/09 01:03:26;;;;;;;;;;;;;;;16.78;61.84;101466.34;5015724;28;19917;-44
2023/06/09 01:05:55;;;;;;;;;;;;;;;16.73;61.75;101460.22;5019382;28;19921;-44
2023/06/09 01:08:25;;;;;;;;;;;;;;;16.68;61.87;101456.66;5014028;28;20364;-43
2023/06/09 01:11:02;;;;;;;;;;;;;;;16.66;62.07;101462.69;5025203;28;19927;-43
2023/06/09 01:13:42;;;;;;;;;;;;;;;16.61;62.21;101468.69;5025045;28;19921;-44
2023/06/09 01:16:19;;;;;;;;;;;;;;;16.57;62.93;101463.47;5018344;28;19917;-44
2023/06/09 01:18:45;;;;;;;;;;;;;;;16.51;63.13;101459.06;5013355;28;19924;-44
2023/06/09 01:21:41;;;;;;;;;;;;;;;16.47;63.35;101462.47;5015737;28;19921;-44
2023/06/09 01:24:09;;;;;;;;;;;;;;;16.43;63.73;101465.00;5027133;28;19928;-44
2023/06/09 01:26:38;;;;;;;;;;;;;;;16.38;63.62;101464.94;5020810;28;19917;-43
2023/06/09 01:29:04;;;;;;;;;;;;;;;16.34;63.08;101450.19;5020666;28;19917;-45
2023/06/09 01:31:29;;;;;;;;;;;;;;;16.30;63.65;101461.34;5019395;28;19924;-46
2023/06/09 01:33:55;;;;;;;;;;;;;;;16.25;63.80;101457.81;5021069;28;20347;-44
2023/06/09 01:36:21;;;;;;;;;;;;;;;16.22;64.32;101461.25;5019218;28;19917;-44
2023/06/09 01:38:46;;;;;;;;;;;;;;;16.19;63.53;101456.00;5012610;28;20028;-44
2023/06/09 01:41:11;;;;;;;;;;;;;;;16.12;63.94;101454.19;5019901;28;19928;-44
2023/06/09 01:43:36;;;;;;;;;;;;;;;16.11;63.98;101457.63;5019693;28;19918;-45
2023/06/09 01:46:02;;;;;;;;;;;;;;;16.07;64.21;101453.22;5018804;28;19918;-57
2023/06/09 01:48:46;;;;;;;;;;;;;;;16.01;64.78;101448.81;5022154;28;19917;-57
2023/06/09 01:51:18;;;;;;;;;;;;;;;15.96;66.41;101450.50;5017714;28;20430;-44
2023/06/09 01:53:47;;;;;;;;;;;;;;;15.91;66.18;101449.56;5016294;28;19917;-44
2023/06/09 01:56:12;;;;;;;;;;;;;;;15.87;64.36;101445.16;5019544;28;19940;-46
2023/06/09 01:58:46;;;;;;;;;;;;;;;15.83;65.05;101448.53;5018459;28;20354;-47
2023/06/09 02:01:15;;;;;;;;;;;;;;;15.80;65.90;101446.78;5013902;28;19913;-44
2023/06/09 02:03:40;;;;;;;;;;;;;;;15.83;65.11;101445.94;5014669;28;19914;-45
2023/06/09 02:06:06;;;;;;;;;;;;;;;15.78;66.47;101455.41;5013758;28;19917;-45
2023/06/09 02:08:32;;;;;;;;;;;;;;;15.73;66.36;101452.72;5014344;28;19914;-44
2023/06/09 02:10:57;;;;;;;;;;;;;;;15.71;66.51;101443.16;5014609;28;20348;-44
2023/06/09 02:13:22;;;;;;;;;;;;;;;15.65;66.58;101446.53;5019483;28;20005;-44
2023/06/09 02:15:48;;;;;;;;;;;;;;;15.64;67.32;101442.19;5016902;28;19964;-44
2023/06/09 02:18:15;;;;;;;;;;;;;;;15.61;66.69;101436.94;5014260;28;19917;-45
2023/06/09 02:20:42;;;;;;;;;;;;;;;15.56;66.44;101430.78;5012966;28;19972;-46
2023/06/09 02:23:07;;;;;;;;;;;;;;;15.49;67.97;101424.63;5017927;28;19921;-44
2023/06/09 02:25:33;;;;;;;;;;;;;;;15.47;66.74;101430.63;5020427;28;19931;-45
2023/06/09 02:27:58;;;;;;;;;;;;;;;15.43;68.00;101427.13;5022398;28;19944;-47
2023/06/09 02:30:24;;;;;;;;;;;;;;;15.40;68.48;101432.25;5019708;28;19920;-45
2023/06/09 02:32:49;;;;;;;;;;;;;;;15.37;67.99;101432.19;5016686;28;20063;-56
2023/06/09 02:35:14;;;;;;;;;;;;;;;15.32;68.75;101435.56;5019024;28;19926;-57
2023/06/09 02:37:41;;;;;;;;;;;;;;;15.29;68.30;101428.63;5019070;28;19924;-56
2023/06/09 02:40:08;;;;;;;;;;;;;;;15.26;68.44;101425.97;5016688;28;19917;-56
2023/06/09 02:42:33;;;;;;;;;;;;;;;15.22;68.54;101429.31;5013213;28;19953;-56
2023/06/09 02:44:58;;;;;;;;;;;;;;;15.19;69.53;101431.88;5019865;28;20356;-56
2023/06/09 02:47:23;;;;;;;;;;;;;;;15.14;69.42;101426.59;5012609;28;19961;-55
2023/06/09 02:49:49;;;;;;;;;;;;;;;15.10;69.00;101432.56;5012290;28;19921;-56
2023/06/09 02:52:14;;;;;;;;;;;;;;;15.05;68.34;101433.34;5023475;28;19921;-56
2023/06/09 02:54:40;;;;;;;;;;;;;;;15.03;70.61;101430.72;5013811;28;19929;-55
2023/06/09 02:57:06;;;;;;;;;;;;;;;14.97;70.41;101423.69;5020575;28;19921;-57
2023/06/09 02:59:32;;;;;;;;;;;;;;;14.96;69.98;101421.09;5021480;28;19922;-57
2023/06/09 03:01:57;;;;;;;;;;;;;;;14.97;69.79;101418.50;5020000;28;19917;-56
2023/06/09 03:04:23;;;;;;;;;;;;;;;14.93;69.28;101419.31;5018662;28;19935;-57
2023/06/09 03:06:50;;;;;;;;;;;;;;;14.92;70.39;101432.22;5017271;28;19918;-56
2023/06/09 03:09:15;;;;;;;;;;;;;;;14.90;70.26;101432.19;5018152;28;20415;-56
2023/06/09 03:11:40;;;;;;;;;;;;;;;14.87;69.47;101432.16;5017795;28;19968;-56
2023/06/09 03:14:07;;;;;;;;;;;;;;;14.85;70.74;101436.41;5014866;28;19949;-57
2023/06/09 03:16:32;;;;;;;;;;;;;;;14.82;71.56;101433.78;5021657;28;19923;-56
2023/06/09 03:18:57;;;;;;;;;;;;;;;14.78;71.50;101431.09;5015703;28;20016;-56
2023/06/09 03:21:25;;;;;;;;;;;;;;;14.75;70.93;101432.78;5013406;28;19913;-57
2023/06/09 03:23:51;;;;;;;;;;;;;;;14.71;70.49;101430.97;5015770;28;19935;-56
2023/06/09 03:26:18;;;;;;;;;;;;;;;14.70;71.66;101433.53;5019532;28;20000;-57
2023/06/09 03:28:43;;;;;;;;;;;;;;;14.67;71.78;101434.31;5016521;28;20436;-56
2023/06/09 03:31:08;;;;;;;;;;;;;;;14.66;72.24;101434.28;5019185;28;19917;-57
2023/06/09 03:33:33;;;;;;;;;;;;;;;14.64;72.83;101434.28;5021444;28;19959;-57
2023/06/09 03:35:59;;;;;;;;;;;;;;;14.61;71.92;101435.91;5018725;28;19917;-56
2023/06/09 03:38:24;;;;;;;;;;;;;;;14.60;70.90;101431.56;5019737;28;20375;-56
2023/06/09 03:40:49;;;;;;;;;;;;;;;14.59;74.09;101435.88;5014321;28;20387;-56
2023/06/09 03:43:15;;;;;;;;;;;;;;;14.57;72.62;101428.94;5017106;28;19974;-56
2023/06/09 03:45:40;;;;;;;;;;;;;;;14.54;72.18;101434.91;5016251;28;19924;-57
2023/06/09 03:48:06;;;;;;;;;;;;;;;14.58;71.49;101436.72;5015038;28;19960;-56
2023/06/09 03:50:32;;;;;;;;;;;;;;;14.56;72.17;101438.44;5016172;28;19996;-57
2023/06/09 03:52:57;;;;;;;;;;;;;;;14.53;73.33;101442.66;5014971;28;20100;-57
2023/06/09 03:55:24;;;;;;;;;;;;;;;14.52;73.21;101444.38;5021528;28;19928;-56
2023/06/09 03:57:49;;;;;;;;;;;;;;;14.52;72.61;101448.66;5017111;28;19924;-57
2023/06/09 04:00:15;;;;;;;;;;;;;;;14.53;72.90;101461.63;5017369;28;20004;-56
2023/06/09 04:02:40;;;;;;;;;;;;;;;14.46;73.42;101445.09;5017124;28;20001;-57
2023/06/09 04:05:06;;;;;;;;;;;;;;;14.47;72.52;101452.03;5016638;28;19918;-56
2023/06/09 04:07:32;;;;;;;;;;;;;;;14.44;73.03;101445.91;5018916;28;20269;-56
2023/06/09 04:09:57;;;;;;;;;;;;;;;14.43;72.87;101454.47;5018098;28;20339;-57
2023/06/09 04:12:22;;;;;;;;;;;;;;;14.46;74.23;101454.56;5015620;28;19933;-57
2023/06/09 04:14:48;;;;;;;;;;;;;;;14.47;73.81;101445.97;5018395;28;19921;-56
2023/06/09 04:17:13;;;;;;;;;;;;;;;14.44;73.91;101446.78;5022980;28;19964;-56
2023/06/09 04:19:38;;;;;;;;;;;;;;;14.46;74.84;101449.38;5023423;28;19924;-56
2023/06/09 04:22:07;;;;;;;;;;;;;;;14.60;73.56;101454.88;5020845;28;20340;-57
2023/06/09 04:24:32;;;;;;;;;;;;;;;15.06;72.20;101450.63;5016721;28;19961;-56
2023/06/09 04:26:58;;;;;;;;;;;;;;;15.51;71.68;101461.81;5025295;28;20339;-57
2023/06/09 04:29:24;;;;;;;;;;;;;;;15.98;71.27;101460.88;5015682;28;19917;-56
2023/06/09 04:31:58;;;;;;;;;;;;;;;16.36;70.23;101466.63;5021537;28;19921;-56
2023/06/09 04:34:25;;;;;;;;;;;;;;;16.79;68.62;101465.50;5027737;28;19924;-57
2023/06/09 04:36:53;;;;;;;;;;;;;;;17.19;67.56;101457.28;5019917;28;19924;-57
2023/06/09 04:39:19;;;;;;;;;;;;;;;17.55;66.41;101459.38;5014999;28;19917;-56
2023/06/09 04:41:44;;;;;;;;;;;;;;;17.80;65.99;101460.47;5011939;28;19957;-56
2023/06/09 04:44:10;;;;;;;;;;;;;;;17.98;65.17;101460.63;5015204;28;19979;-56
2023/06/09 04:46:37;;;;;;;;;;;;;;;18.25;65.02;101466.84;5014609;28;19933;-56
2023/06/09 04:49:08;;;;;;;;;;;;;;;18.45;64.85;101458.31;5011972;28;19917;-56
2023/06/09 04:51:41;;;;;;;;;;;;;;;18.67;63.53;101461.91;5015323;28;19955;-57
2023/06/09 04:54:07;;;;;;;;;;;;;;;18.85;63.17;101473.28;5012247;28;20291;-60
2023/06/09 04:56:32;;;;;;;;;;;;;;;19.09;63.22;101462.06;5013509;28;19921;-56
2023/06/09 04:58:58;;;;;;;;;;;;;;;19.34;61.85;101465.56;5025560;28;20429;-56
2023/06/09 05:01:23;;;;;;;;;;;;;;;19.54;60.99;101466.50;5019306;28;19922;-56
2023/06/09 05:03:48;;;;;;;;;;;;;;;19.73;61.11;101473.47;5018681;28;19913;-56
2023/06/09 05:06:14;;;;;;;;;;;;;;;19.93;60.44;101467.38;5018215;28;20391;-56
2023/06/09 05:08:39;;;;;;;;;;;;;;;20.03;60.73;101471.72;5018963;28;20050;-56
2023/06/09 05:11:05;;;;;;;;;;;;;;;20.02;60.24;101465.63;5018946;28;19917;-57
2023/06/09 05:13:30;;;;;;;;;;;;;;;20.01;58.48;101478.66;5016822;28;19996;-56
2023/06/09 05:15:57;;;;;;;;;;;;;;;19.95;58.37;101478.69;5021485;28;19949;-57
2023/06/09 05:18:22;;;;;;;;;;;;;;;19.82;60.56;101472.59;5019918;28;19917;-57
2023/06/09 05:20:47;;;;;;;;;;;;;;;19.71;60.39;101471.72;5017145;28;19921;-57
2023/06/09 05:23:13;;;;;;;;;;;;;;;19.65;59.06;101469.97;5019421;28;20372;-57
2023/06/09 05:25:38;;;;;;;;;;;;;;;19.49;60.03;101468.22;5016669;28;20356;-58
2023/06/09 05:28:03;;;;;;;;;;;;;;;19.36;61.35;101463.88;5019805;28;19913;-56
2023/06/09 05:30:28;;;;;;;;;;;;;;;19.46;60.69;101473.41;5016084;28;19983;-56
2023/06/09 05:32:54;;;;;;;;;;;;;;;19.57;60.97;101466.47;5013808;28;19922;-56
2023/06/09 05:35:19;;;;;;;;;;;;;;;19.69;60.99;101471.72;5018175;28;19948;-57
2023/06/09 05:37:48;;;;;;;;;;;;;;;19.93;60.17;101475.22;5017716;28;19927;-57
2023/06/09 05:40:14;;;;;;;;;;;;;;;20.06;59.50;101476.94;5019695;28;19925;-55
2023/06/09 05:42:39;;;;;;;;;;;;;;;20.27;60.21;101474.28;5014722;28;19927;-56
2023/06/09 05:45:05;;;;;;;;;;;;;;;20.51;58.86;101482.97;5017897;28;19964;-56
2023/06/09 05:47:31;;;;;;;;;;;;;;;20.64;59.47;101473.34;5016126;28;20371;-57
2023/06/09 05:49:56;;;;;;;;;;;;;;;20.79;58.25;101481.13;5017059;28;19921;-56
2023/06/09 05:52:22;;;;;;;;;;;;;;;20.89;59.07;101467.13;5015839;28;19921;-58
2023/06/09 05:54:47;;;;;;;;;;;;;;;20.83;58.46;101468.03;5013917;28;20368;-57
2023/06/09 05:57:13;;;;;;;;;;;;;;;20.69;58.63;101472.47;5016505;28;20028;-56
2023/06/09 05:59:39;;;;;;;;;;;;;;;20.73;59.05;101470.69;5013482;28;19929;-57
2023/06/09 06:02:05;;;;;;;;;;;;;;;20.81;58.61;101472.41;5023776;28;19917;-57
2023/06/09 06:04:30;;;;;;;;;;;;;;;20.81;58.35;101471.50;5022512;28;19920;-57
2023/06/09 06:06:55;;;;;;;;;;;;;;;20.66;59.52;101482.03;5024130;28;19929;-56
2023/06/09 06:09:21;;;;;;;;;;;;;;;20.76;59.48;101475.91;5023389;28;20008;-58
2023/06/09 06:11:46;;;;;;;;;;;;;;;20.90;58.89;101458.41;5022464;28;20337;-56
2023/06/09 06:14:11;;;;;;;;;;;;;;;20.93;58.23;101462.75;5026621;28;19921;-57
2023/06/09 06:16:37;;;;;;;;;;;;;;;20.96;58.98;101467.97;5020365;28;19932;-56
2023/06/09 06:19:02;;;;;;;;;;;;;;;21.29;58.70;101469.53;5017424;28;20517;-56
2023/06/09 06:21:27;;;;;;;;;;;;;;;21.43;58.57;101467.72;5020452;28;20342;-56
2023/06/09 06:23:53;;;;;;;;;;;;;;;21.51;56.99;101468.53;5017886;28;19960;-56
2023/06/09 06:26:18;;;;;;;;;;;;;;;21.59;57.51;101465.84;5022658;28;19971;-56
2023/06/09 06:28:43;;;;;;;;;;;;;;;21.74;57.46;101459.63;5016257;28;19921;-56
2023/06/09 06:31:08;;;;;;;;;;;;;;;21.86;57.09;101465.63;5021218;28;19921;-57
2023/06/09 06:33:34;;;;;;;;;;;;;;;21.90;57.55;101471.69;5017876;28;19987;-56
2023/06/09 06:36:00;;;;;;;;;;;;;;;22.00;56.98;101475.97;5022440;28;19917;-56
2023/06/09 06:38:25;;;;;;;;;;;;;;;22.13;56.38;101472.38;5019933;28;19975;-56
2023/06/09 06:40:51;;;;;;;;;;;;;;;22.35;55.92;101470.41;5017520;28;20003;-57
2023/06/09 06:43:16;;;;;;;;;;;;;;;22.47;54.95;101472.03;5019578;28;19922;-57
2023/06/09 06:45:41;;;;;;;;;;;;;;;22.43;55.62;101470.31;5018521;28;19921;-46
2023/06/09 06:48:07;;;;;;;;;;;;;;;22.37;55.46;101467.75;5016269;28;19929;-47
2023/06/09 06:50:35;;;;;;;;;;;;;;;22.16;56.22;101468.88;5015208;28;19921;-45
2023/06/09 06:53:00;;;;;;;;;;;;;;;22.06;56.44;101465.44;5015947;28;19971;-56
2023/06/09 06:55:26;;;;;;;;;;;;;;;22.08;56.47;101468.88;5016121;28;20371;-56
2023/06/09 06:57:51;;;;;;;;;;;;;;;22.18;56.11;101467.09;5015077;28;19921;-56
2023/06/09 07:00:16;;;;;;;;;;;;;;;22.35;55.32;101464.31;5021782;28;19925;-56
2023/06/09 07:02:46;;;;;;;;;;;;;;;22.39;56.22;101464.25;5015980;28;19971;-56
2023/06/09 07:05:11;;;;;;;;;;;;;;;22.59;55.59;101468.38;5014632;28;20351;-56
2023/06/09 07:07:36;;;;;;;;;;;;;;;22.62;54.40;101468.34;5021471;28;19948;-44
2023/06/09 07:10:02;;;;;;;;;;;;;;;22.25;55.40;101476.63;5016490;28;19924;-57
2023/06/09 07:12:27;;;;;;;;;;;;;;;22.17;56.12;101468.84;5019828;28;19933;-57
2023/06/09 07:14:53;;;;;;;;;;;;;;;22.33;55.84;101463.47;5014194;28;19917;-57
2023/06/09 07:17:18;;;;;;;;;;;;;;;22.51;55.31;101475.44;5016204;28;19992;-56
2023/06/09 07:19:43;;;;;;;;;;;;;;;22.41;55.68;101475.56;5025053;28;19944;-57
2023/06/09 07:22:08;;;;;;;;;;;;;;;22.48;55.62;101474.63;5023288;28;20012;-57
2023/06/09 07:24:34;;;;;;;;;;;;;;;22.71;55.23;101469.09;5022548;28;20564;-57
2023/06/09 07:26:59;;;;;;;;;;;;;;;22.94;54.61;101470.59;5023083;28;20314;-56
2023/06/09 07:29:25;;;;;;;;;;;;;;;23.12;54.36;101474.72;5020024;28;22393;-57
2023/06/09 07:31:50;;;;;;;;;;;;;;;23.26;53.73;101471.00;5022066;28;19921;-57
2023/06/09 07:34:15;;;;;;;;;;;;;;;23.36;54.07;101477.00;5021534;28;19976;-58
2023/06/09 07:36:41;;;;;;;;;;;;;;;23.61;53.39;101479.25;5021425;28;19921;-57
2023/06/09 07:39:07;;;;;;;;;;;;;;;23.88;52.94;101476.16;5021774;28;19921;-58
2023/06/09 07:41:33;;;;;;;;;;;;;;;23.93;52.59;101482.22;5010388;28;19913;-59
2023/06/09 07:43:59;;;;;;;;;;;;;;;23.99;52.78;101479.47;5012156;28;20299;-65
2023/06/09 07:46:24;;;;;;;;;;;;;;;24.12;52.07;101481.88;5017591;28;19914;-65
2023/06/09 07:48:49;;;;;;;;;;;;;;;24.28;52.04;101478.09;5019992;28;19920;-65
2023/06/09 07:51:16;;;;;;;;;;;;;;;24.40;51.88;101472.63;5022108;28;19963;-65
2023/06/09 07:53:42;;;;;;;;;;;;;;;24.50;51.79;101474.16;5017626;28;20292;-65
2023/06/09 07:56:08;;;;;;;;;;;;;;;24.51;51.67;101468.03;5024518;28;20351;-63
2023/06/09 07:58:33;;;;;;;;;;;;;;;24.55;51.45;101466.19;5016936;28;20372;-64
2023/06/09 08:00:58;;;;;;;;;;;;;;;24.63;51.15;101464.25;5012607;28;19920;-64
2023/06/09 08:03:24;;;;;;;;;;;;;;;24.65;50.38;101472.13;5025293;28;19917;-64
2023/06/09 08:05:49;;;;;;;;;;;;;;;24.63;51.46;101464.25;5009239;28;20335;-64
2023/06/09 08:08:17;;;;;;;;;;;;;;;24.77;50.87;101464.84;5011907;28;20028;-64
2023/06/09 08:10:49;;;;;;;;;;;;;;;24.86;49.90;101469.91;5018543;28;19921;-64
2023/06/09 08:13:15;;;;;;;;;;;;;;;24.94;50.09;101455.75;5028019;28;20018;-57
2023/06/09 08:15:40;;;;;;;;;;;;;;;25.04;50.05;101460.72;5014209;28;20004;-57
2023/06/09 08:18:06;;;;;;;;;;;;;;;25.34;49.21;101463.59;5010588;28;20435;-57
2023/06/09 08:20:31;;;;;;;;;;;;;;;25.49;49.64;101460.63;5010252;28;19921;-57
2023/06/09 08:22:57;;;;;;;;;;;;;;;25.60;49.81;101458.59;5018947;28;20451;-57
2023/06/09 08:25:24;;;;;;;;;;;;;;;25.73;49.82;101453.00;5018146;28;20020;-57
2023/06/09 08:27:49;;;;;;;;;;;;;;;25.86;49.09;101457.09;5017670;28;19921;-58
2023/06/09 08:30:14;;;;;;;;;;;;;;;25.86;48.02;101451.81;5020879;28;19921;-56
2023/06/09 08:32:40;;;;;;;;;;;;;;;25.70;48.65;101450.44;5017335;28;20273;-58
2023/06/09 08:35:06;;;;;;;;;;;;;;;25.79;49.07;101455.53;5020791;28;19921;-56
2023/06/09 08:37:32;;;;;;;;;;;;;;;25.90;48.17;101449.03;5022845;28;21209;-56
2023/06/09 08:40:00;;;;;;;;;;;;;;;25.85;48.69;101452.72;5020159;28;20000;-57
2023/06/09 08:42:25;;;;;;;;;;;;;;;26.04;48.53;101448.69;5014941;28;20265;-57
2023/06/09 08:45:06;;;;;;;;;;;;;;;26.16;48.50;101444.88;5013817;28;19987;-57
2023/06/09 08:47:32;;;;;;;;;;;;;;;26.24;47.73;101453.41;5019086;28;19944;-57
2023/06/09 08:49:59;;;;;;;;;;;;;;;26.24;47.23;101449.91;5021095;28;20019;-57
2023/06/09 08:52:24;;;;;;;;;;;;;;;26.18;46.57;101451.81;5021803;28;20363;-58
2023/06/09 08:54:50;;;;;;;;;;;;;;;26.10;47.49;101455.56;5018943;28;19949;-58
2023/06/09 08:57:15;;;;;;;;;;;;;;;26.17;47.10;101454.50;5024086;28;19963;-57
2023/06/09 08:59:41;;;;;;;;;;;;;;;26.38;46.96;101450.38;5018028;28;19925;-57
2023/06/09 09:02:08;;;;;;;;;;;;;;;26.52;47.23;101443.00;5017158;28;20028;-57
2023/06/09 09:04:34;;;;;;;;;;;;;;;26.61;47.04;101441.84;5015382;28;19917;-56
2023/06/09 09:06:59;;;;;;;;;;;;;;;26.64;45.83;101447.91;5015649;28;19967;-58
2023/06/09 09:09:24;;;;;;;;;;;;;;;26.54;46.05;101442.94;5013994;28;20288;-57
2023/06/09 09:11:57;;;;;;;;;;;;;;;26.41;46.72;101448.56;5012801;28;19925;-57
2023/06/09 09:14:22;;;;;;;;;;;;;;;26.38;47.24;101437.19;5019591;28;20003;-57
2023/06/09 09:16:47;;;;;;;;;;;;;;;26.20;46.34;101436.81;5017056;28;20392;-58
2023/06/09 09:19:13;;;;;;;;;;;;;;;26.01;45.86;101440.00;5015199;28;20395;-58
2023/06/09 09:21:38;;;;;;;;;;;;;;;25.89;47.13;101436.78;5014118;28;20406;-58
2023/06/09 09:24:04;;;;;;;;;;;;;;;25.85;46.30;101436.91;5022110;28;19925;-58
2023/06/09 09:26:30;;;;;;;;;;;;;;;25.85;47.05;101436.91;5027184;28;19917;-57
2023/06/09 09:28:56;;;;;;;;;;;;;;;25.80;47.11;101428.25;5019387;28;19918;-58
2023/06/09 09:31:29;;;;;;;;;;;;;;;25.93;47.39;101432.31;5022463;28;19921;-58
2023/06/09 09:33:55;;;;;;;;;;;;;;;25.98;46.86;101419.88;5020615;28;19925;-59
2023/06/09 09:36:20;;;;;;;;;;;;;;;26.03;47.03;101419.72;5017576;28;19913;-60
2023/06/09 09:38:46;;;;;;;;;;;;;;;26.10;46.58;101432.72;5017198;28;19920;-58
2023/06/09 09:41:14;;;;;;;;;;;;;;;26.07;46.98;101422.25;5013832;28;20343;-57
2023/06/09 09:43:40;;;;;;;;;;;;;;;26.08;47.06;101418.69;5020144;28;20290;-59
2023/06/09 09:46:07;;;;;;;;;;;;;;;26.11;46.81;101418.63;5014333;28;19992;-58
2023/06/09 09:48:33;;;;;;;;;;;;;;;26.25;46.65;101420.00;5014541;28;19921;-59
2023/06/09 09:50:58;;;;;;;;;;;;;;;26.33;45.77;101423.28;5016961;28;19917;-59
2023/06/09 09:53:26;;;;;;;;;;;;;;;26.31;45.72;101422.47;5018229;28;19933;-59
2023/06/09 09:55:56;;;;;;;;;;;;;;;26.31;46.39;101412.78;5016095;28;19924;-58
2023/06/09 09:58:31;;;;;;;;;;;;;;;26.20;45.00;101423.63;5018277;28;19924;-62
2023/06/09 10:00:58;;;;;;;;;;;;;;;25.97;45.64;101417.25;5013137;28;19917;-59
2023/06/09 10:03:23;;;;;;;;;;;;;;;26.11;44.99;101417.75;5013027;28;19924;-59
2023/06/09 10:05:49;;;;;;;;;;;;;;;26.20;43.58;101422.75;5016382;28;19917;-57
2023/06/09 10:08:19;;;;;;;;;;;;;;;26.19;44.70;101410.50;5012894;28;19967;-58
2023/06/09 10:10:45;;;;;;;;;;;;;;;26.38;45.17;101416.09;5013404;28;19914;-58
2023/06/09 10:13:10;;;;;;;;;;;;;;;26.50;44.39;101405.22;5013547;28;19921;-58
2023/06/09 10:15:35;;;;;;;;;;;;;;;26.59;44.34;101398.84;5015726;28;19917;-59
2023/06/09 10:18:01;;;;;;;;;;;;;;;26.65;44.68;101402.16;5016165;28;19930;-58
2023/06/09 10:20:27;;;;;;;;;;;;;;;26.78;44.49;101397.38;5014108;28;19921;-59
2023/06/09 10:22:52;;;;;;;;;;;;;;;26.90;43.40;101402.25;5014964;28;20008;-58
2023/06/09 10:25:18;;;;;;;;;;;;;;;26.88;44.15;101400.59;5021242;28;20012;-57
2023/06/09 10:27:44;;;;;;;;;;;;;;;26.93;44.44;101403.91;5026397;28;19918;-57
2023/06/09 10:30:10;;;;;;;;;;;;;;;27.11;43.98;101390.16;5015988;28;19964;-58
2023/06/09 10:32:46;;;;;;;;;;;;;;;27.22;41.53;101408.31;5012812;28;19921;-58
2023/06/09 10:35:11;;;;;;;;;;;;;;;27.11;41.70;101400.72;5015611;28;19917;-58
2023/06/09 10:37:40;;;;;;;;;;;;;;;27.14;41.75;101389.22;5019553;28;20011;-58
2023/06/09 10:40:12;;;;;;;;;;;;;;;27.24;42.25;101380.97;5017390;28;20364;-59
2023/06/09 10:42:56;;;;;;;;;;;;;;;27.41;42.24;101392.72;5014089;28;19917;-58
2023/06/09 10:45:22;;;;;;;;;;;;;;;27.62;40.70;101393.78;5016473;28;19917;-57
2023/06/09 10:47:48;;;;;;;;;;;;;;;27.56;40.77;101386.06;5013930;28;20039;-57
2023/06/09 10:50:40;;;;;;;;;;;;;;;27.50;40.68;101387.16;5016290;28;20018;-57
2023/06/09 10:53:13;;;;;;;;;;;;;;;27.58;40.25;101390.38;5014908;28;19921;-57
2023/06/09 10:55:38;;;;;;;;;;;;;;;27.57;39.12;101377.22;5014465;28;20102;-58
2023/06/09 10:58:23;;;;;;;;;;;;;;;27.53;38.37;101376.47;5014822;28;19957;-57
2023/06/09 11:01:06;;;;;;;;;;;;;;;27.50;39.10;101382.72;5017162;28;19924;-57
2023/06/09 11:03:31;;;;;;;;;;;;;;;27.57;38.54;101377.22;5019470;28;19928;-56
2023/06/09 11:06:00;;;;;;;;;;;;;;;27.56;37.62;101378.16;5017614;28;19922;-57
2023/06/09 11:08:25;;;;;;;;;;;;;;;27.61;37.78;101357.72;5014208;28;19996;-57
2023/06/09 11:10:51;;;;;;;;;;;;;;;27.87;35.64;101362.97;5013681;28;20140;-57
2023/06/09 11:13:35;;;;;;;;;;;;;;;27.83;36.81;101357.84;5012202;28;19930;-58
2023/06/09 11:16:03;;;;;;;;;;;;;;;28.01;36.86;101365.09;5016957;28;19925;-57
2023/06/09 11:18:28;;;;;;;;;;;;;;;28.13;37.36;101361.16;5016137;28;19921;-57
2023/06/09 11:21:07;;;;;;;;;;;;;;;28.35;36.94;101355.97;5016101;28;19925;-57
2023/06/09 11:23:32;;;;;;;;;;;;;;;28.43;37.85;101356.50;5014645;28;19914;-58
2023/06/09 11:25:57;;;;;;;;;;;;;;;28.48;35.90;101368.66;5019296;28;20293;-57
2023/06/09 11:28:23;;;;;;;;;;;;;;;28.24;36.02;101359.81;5012780;28;19964;-57
2023/06/09 11:30:59;;;;;;;;;;;;;;;28.29;36.34;101363.16;5010606;28;20364;-56
2023/06/09 11:33:45;;;;;;;;;;;;;;;28.32;35.49;101372.78;5015290;28;19917;-55
2023/06/09 11:36:15;;;;;;;;;;;;;;;28.22;36.28;101345.81;5017384;28;19921;-55
2023/06/09 11:38:41;;;;;;;;;;;;;;;28.24;36.24;101357.19;5024976;28;19943;-56
2023/06/09 11:41:09;;;;;;;;;;;;;;;28.20;37.04;101352.06;5017943;28;19925;-54
2023/06/09 11:43:35;;;;;;;;;;;;;;;28.25;35.84;101356.25;5015323;28;20406;-55
2023/06/09 11:46:01;;;;;;;;;;;;;;;28.24;36.33;101365.13;5014612;28;19995;-55
2023/06/09 11:48:26;;;;;;;;;;;;;;;28.15;35.95;101348.72;5015564;28;19917;-56
2023/06/09 11:50:52;;;;;;;;;;;;;;;28.11;35.50;101355.94;5015464;28;19928;-55
2023/06/09 11:53:18;;;;;;;;;;;;;;;28.10;36.55;101340.13;5013185;28;20024;-56
2023/06/09 11:55:45;;;;;;;;;;;;;;;28.13;36.85;101345.28;5018500;28;20016;-56
2023/06/09 11:58:12;;;;;;;;;;;;;;;28.17;36.85;101339.84;5015293;28;19953;-56
2023/06/09 12:00:38;;;;;;;;;;;;;;;28.34;37.17;101338.38;5022161;28;20024;-58
2023/06/09 12:03:05;;;;;;;;;;;;;;;28.57;36.41;101341.81;5016398;28;19925;-57
2023/06/09 12:05:30;;;;;;;;;;;;;;;28.78;35.43;101339.25;5010922;28;19987;-57
2023/06/09 12:07:56;;;;;;;;;;;;;;;28.90;36.01;101343.19;5021739;28;20310;-58
2023/06/09 12:10:23;;;;;;;;;;;;;;;28.97;35.14;101336.75;5016114;28;19961;-57
2023/06/09 12:12:53;;;;;;;;;;;;;;;28.92;35.62;101334.28;5014287;28;19917;-56
2023/06/09 12:15:19;;;;;;;;;;;;;;;28.91;35.45;101335.19;5017101;28;19928;-58
2023/06/09 12:17:48;;;;;;;;;;;;;;;29.05;35.79;101335.50;5015699;28;19917;-57
2023/06/09 12:20:22;;;;;;;;;;;;;;;29.12;35.06;101322.88;5015918;28;20008;-57
2023/06/09 12:22:48;;;;;;;;;;;;;;;29.19;35.42;101324.34;5021960;28;19924;-56
2023/06/09 12:25:29;;;;;;;;;;;;;;;29.23;35.54;101322.41;5013664;28;19925;-47
2023/06/09 12:28:12;;;;;;;;;;;;;;;29.13;35.09;101307.88;5014104;28;19923;-46
2023/06/09 12:30:39;;;;;;;;;;;;;;;29.05;36.02;101311.66;5010578;28;19921;-44
2023/06/09 12:33:14;;;;;;;;;;;;;;;29.20;34.63;101333.16;5013070;28;20323;-57